sensor_id;sensor_type;location;lat;lon;timestamp;P1;durP1;ratioP1;P2;durP2;ratioP2
50417;SDS011;36346;48.280;14.292;2022-07-04T00:01:05;4.52;;;4.52;;
50417;SDS011;36346;48.280;14.292;2022-07-04T00:03:34;4.28;;;4.28;;
50417;SDS011;36346;48.280;14.292;2022-07-04T00:06:02;4.31;;;4.31;;
50417;SDS011;36346;48.280;14.292;2022-07-04T00:08:31;4.31;;;4.31;;
50417;SDS011;36346;48.280;14.292;2022-07-04T00:10:59;4.47;;;4.47;;
50417;SDS011;36346;48.280;14.292;2022-07-04T00:13:27;4.39;;;4.39;;
50417;SDS011;36346;48.280;14.292;2022-07-04T00:15:56;4.40;;;4.40;;
50417;SDS011;36346;48.280;14.292;2022-07-04T00:18:24;4.55;;;4.55;;
50417;SDS011;36346;48.280;14.292;2022-07-04T00:20:53;4.28;;;4.28;;
50417;SDS011;36346;48.280;14.292;2022-07-04T00:23:21;4.26;;;4.26;;
50417;SDS011;36346;48.280;14.292;2022-07-04T00:25:51;4.44;;;4.44;;
50417;SDS011;36346;48.280;14.292;2022-07-04T00:28:19;4.65;;;4.65;;
50417;SDS011;36346;48.280;14.292;2022-07-04T00:30:47;4.49;;;4.49;;
50417;SDS011;36346;48.280;14.292;2022-07-04T00:33:16;4.87;;;4.87;;
50417;SDS011;36346;48.280;14.292;2022-07-04T00:35:44;4.63;;;4.63;;
50417;SDS011;36346;48.280;14.292;2022-07-04T00:38:13;4.63;;;4.63;;
50417;SDS011;36346;48.280;14.292;2022-07-04T00:40:41;4.59;;;4.59;;
50417;SDS011;36346;48.280;14.292;2022-07-04T00:43:09;4.74;;;4.74;;
50417;SDS011;36346;48.280;14.292;2022-07-04T00:45:38;4.84;;;4.84;;
50417;SDS011;36346;48.280;14.292;2022-07-04T00:48:06;4.97;;;4.97;;
50417;SDS011;36346;48.280;14.292;2022-07-04T00:50:35;4.68;;;4.68;;
50417;SDS011;36346;48.280;14.292;2022-07-04T00:53:03;5.07;;;5.07;;
50417;SDS011;36346;48.280;14.292;2022-07-04T00:55:32;4.83;;;4.83;;
50417;SDS011;36346;48.280;14.292;2022-07-04T00:58:01;4.84;;;4.84;;
50417;SDS011;36346;48.280;14.292;2022-07-04T01:00:30;4.84;;;4.84;;
50417;SDS011;36346;48.280;14.292;2022-07-04T01:02:58;5.01;;;5.01;;
50417;SDS011;36346;48.280;14.292;2022-07-04T01:05:27;4.79;;;4.79;;
50417;SDS011;36346;48.280;14.292;2022-07-04T01:07:55;4.72;;;4.72;;
50417;SDS011;36346;48.280;14.292;2022-07-04T01:10:25;5.00;;;5.00;;
50417;SDS011;36346;48.280;14.292;2022-07-04T01:12:53;4.70;;;4.70;;
50417;SDS011;36346;48.280;14.292;2022-07-04T01:15:22;4.64;;;4.64;;
50417;SDS011;36346;48.280;14.292;2022-07-04T01:17:50;5.01;;;5.01;;
50417;SDS011;36346;48.280;14.292;2022-07-04T01:20:22;4.89;;;4.89;;
50417;SDS011;36346;48.280;14.292;2022-07-04T01:22:51;5.01;;;5.01;;
50417;SDS011;36346;48.280;14.292;2022-07-04T01:25:19;4.92;;;4.92;;
50417;SDS011;36346;48.280;14.292;2022-07-04T01:27:47;5.01;;;5.01;;
50417;SDS011;36346;48.280;14.292;2022-07-04T01:30:16;4.72;;;4.72;;
50417;SDS011;36346;48.280;14.292;2022-07-04T01:32:44;4.77;;;4.77;;
50417;SDS011;36346;48.280;14.292;2022-07-04T01:35:13;4.86;;;4.86;;
50417;SDS011;36346;48.280;14.292;2022-07-04T01:37:40;4.39;;;4.39;;
50417;SDS011;36346;48.280;14.292;2022-07-04T01:40:09;4.67;;;4.67;;
50417;SDS011;36346;48.280;14.292;2022-07-04T01:42:40;4.87;;;4.87;;
50417;SDS011;36346;48.280;14.292;2022-07-04T01:45:09;4.80;;;4.80;;
50417;SDS011;36346;48.280;14.292;2022-07-04T01:47:39;4.89;;;4.89;;
50417;SDS011;36346;48.280;14.292;2022-07-04T01:50:08;5.08;;;5.08;;
50417;SDS011;36346;48.280;14.292;2022-07-04T01:52:40;4.84;;;4.84;;
50417;SDS011;36346;48.280;14.292;2022-07-04T01:55:10;5.01;;;5.01;;
50417;SDS011;36346;48.280;14.292;2022-07-04T01:57:39;5.01;;;5.01;;
50417;SDS011;36346;48.280;14.292;2022-07-04T02:00:09;5.05;;;5.05;;
50417;SDS011;36346;48.280;14.292;2022-07-04T02:02:56;4.69;;;4.69;;
50417;SDS011;36346;48.280;14.292;2022-07-04T02:05:25;5.01;;;5.01;;
50417;SDS011;36346;48.280;14.292;2022-07-04T02:07:53;5.17;;;5.17;;
50417;SDS011;36346;48.280;14.292;2022-07-04T02:10:21;4.95;;;4.95;;
50417;SDS011;36346;48.280;14.292;2022-07-04T02:12:50;5.11;;;5.11;;
50417;SDS011;36346;48.280;14.292;2022-07-04T02:15:34;5.00;;;5.00;;
50417;SDS011;36346;48.280;14.292;2022-07-04T02:18:04;4.86;;;4.86;;
50417;SDS011;36346;48.280;14.292;2022-07-04T02:20:33;4.92;;;4.92;;
50417;SDS011;36346;48.280;14.292;2022-07-04T02:23:02;5.05;;;5.05;;
50417;SDS011;36346;48.280;14.292;2022-07-04T02:25:31;5.12;;;5.12;;
50417;SDS011;36346;48.280;14.292;2022-07-04T02:28:00;5.11;;;5.11;;
50417;SDS011;36346;48.280;14.292;2022-07-04T02:30:28;4.91;;;4.91;;
50417;SDS011;36346;48.280;14.292;2022-07-04T02:32:57;4.69;;;4.69;;
50417;SDS011;36346;48.280;14.292;2022-07-04T02:35:25;4.92;;;4.92;;
50417;SDS011;36346;48.280;14.292;2022-07-04T02:37:54;4.72;;;4.72;;
50417;SDS011;36346;48.280;14.292;2022-07-04T02:40:22;4.77;;;4.77;;
50417;SDS011;36346;48.280;14.292;2022-07-04T02:42:51;4.60;;;4.60;;
50417;SDS011;36346;48.280;14.292;2022-07-04T02:45:19;5.02;;;5.02;;
50417;SDS011;36346;48.280;14.292;2022-07-04T02:47:47;4.44;;;4.44;;
50417;SDS011;36346;48.280;14.292;2022-07-04T02:50:16;4.52;;;4.52;;
50417;SDS011;36346;48.280;14.292;2022-07-04T02:52:44;4.59;;;4.59;;
50417;SDS011;36346;48.280;14.292;2022-07-04T02:55:12;4.76;;;4.76;;
50417;SDS011;36346;48.280;14.292;2022-07-04T02:57:41;4.93;;;4.93;;
50417;SDS011;36346;48.280;14.292;2022-07-04T03:00:09;5.29;;;5.29;;
50417;SDS011;36346;48.280;14.292;2022-07-04T03:02:38;5.88;;;5.88;;
50417;SDS011;36346;48.280;14.292;2022-07-04T03:05:06;5.52;;;5.52;;
50417;SDS011;36346;48.280;14.292;2022-07-04T03:07:35;5.19;;;5.19;;
50417;SDS011;36346;48.280;14.292;2022-07-04T03:10:03;4.88;;;4.88;;
50417;SDS011;36346;48.280;14.292;2022-07-04T03:12:32;4.91;;;4.91;;
50417;SDS011;36346;48.280;14.292;2022-07-04T03:15:01;4.87;;;4.87;;
50417;SDS011;36346;48.280;14.292;2022-07-04T03:17:30;4.80;;;4.80;;
50417;SDS011;36346;48.280;14.292;2022-07-04T03:19:58;4.95;;;4.95;;
50417;SDS011;36346;48.280;14.292;2022-07-04T03:22:27;4.75;;;4.75;;
50417;SDS011;36346;48.280;14.292;2022-07-04T03:24:55;4.76;;;4.76;;
50417;SDS011;36346;48.280;14.292;2022-07-04T03:27:24;4.96;;;4.96;;
50417;SDS011;36346;48.280;14.292;2022-07-04T03:29:52;4.93;;;4.93;;
50417;SDS011;36346;48.280;14.292;2022-07-04T03:32:20;5.05;;;5.05;;
50417;SDS011;36346;48.280;14.292;2022-07-04T03:34:49;4.81;;;4.81;;
50417;SDS011;36346;48.280;14.292;2022-07-04T03:37:17;4.97;;;4.97;;
50417;SDS011;36346;48.280;14.292;2022-07-04T03:39:46;5.15;;;5.15;;
50417;SDS011;36346;48.280;14.292;2022-07-04T03:42:17;5.64;;;5.64;;
50417;SDS011;36346;48.280;14.292;2022-07-04T03:44:46;5.92;;;5.92;;
50417;SDS011;36346;48.280;14.292;2022-07-04T03:47:14;5.35;;;5.35;;
50417;SDS011;36346;48.280;14.292;2022-07-04T03:49:43;5.34;;;5.34;;
50417;SDS011;36346;48.280;14.292;2022-07-04T03:52:11;5.36;;;5.36;;
50417;SDS011;36346;48.280;14.292;2022-07-04T03:54:40;5.11;;;5.11;;
50417;SDS011;36346;48.280;14.292;2022-07-04T03:57:08;6.11;;;6.11;;
50417;SDS011;36346;48.280;14.292;2022-07-04T03:59:37;6.01;;;6.01;;
50417;SDS011;36346;48.280;14.292;2022-07-04T04:02:05;5.90;;;5.90;;
50417;SDS011;36346;48.280;14.292;2022-07-04T04:04:34;5.97;;;5.97;;
50417;SDS011;36346;48.280;14.292;2022-07-04T04:07:21;6.05;;;6.05;;
50417;SDS011;36346;48.280;14.292;2022-07-04T04:09:49;5.86;;;5.86;;
50417;SDS011;36346;48.280;14.292;2022-07-04T04:12:17;5.84;;;5.84;;
50417;SDS011;36346;48.280;14.292;2022-07-04T04:14:46;5.97;;;5.97;;
50417;SDS011;36346;48.280;14.292;2022-07-04T04:17:15;5.87;;;5.87;;
50417;SDS011;36346;48.280;14.292;2022-07-04T04:19:44;5.56;;;5.56;;
50417;SDS011;36346;48.280;14.292;2022-07-04T04:22:12;5.24;;;5.24;;
50417;SDS011;36346;48.280;14.292;2022-07-04T04:24:40;5.20;;;5.20;;
50417;SDS011;36346;48.280;14.292;2022-07-04T04:27:11;5.15;;;5.15;;
50417;SDS011;36346;48.280;14.292;2022-07-04T04:29:40;5.43;;;5.43;;
50417;SDS011;36346;48.280;14.292;2022-07-04T04:32:08;5.26;;;5.26;;
50417;SDS011;36346;48.280;14.292;2022-07-04T04:34:36;5.56;;;5.56;;
50417;SDS011;36346;48.280;14.292;2022-07-04T04:37:05;5.48;;;5.48;;
50417;SDS011;36346;48.280;14.292;2022-07-04T04:39:33;5.67;;;5.67;;
50417;SDS011;36346;48.280;14.292;2022-07-04T04:42:02;5.23;;;5.23;;
50417;SDS011;36346;48.280;14.292;2022-07-04T04:44:30;5.60;;;5.60;;
50417;SDS011;36346;48.280;14.292;2022-07-04T04:46:59;5.60;;;5.60;;
50417;SDS011;36346;48.280;14.292;2022-07-04T04:49:27;4.99;;;4.99;;
50417;SDS011;36346;48.280;14.292;2022-07-04T04:51:55;5.47;;;5.47;;
50417;SDS011;36346;48.280;14.292;2022-07-04T04:54:24;5.27;;;5.27;;
50417;SDS011;36346;48.280;14.292;2022-07-04T04:56:52;5.45;;;5.45;;
50417;SDS011;36346;48.280;14.292;2022-07-04T04:59:21;5.23;;;5.23;;
50417;SDS011;36346;48.280;14.292;2022-07-04T05:01:49;5.64;;;5.64;;
50417;SDS011;36346;48.280;14.292;2022-07-04T05:04:18;5.48;;;5.48;;
50417;SDS011;36346;48.280;14.292;2022-07-04T05:06:47;5.45;;;5.45;;
50417;SDS011;36346;48.280;14.292;2022-07-04T05:09:16;5.56;;;5.56;;
50417;SDS011;36346;48.280;14.292;2022-07-04T05:11:44;7.08;;;7.08;;
50417;SDS011;36346;48.280;14.292;2022-07-04T05:14:14;7.02;;;7.02;;
50417;SDS011;36346;48.280;14.292;2022-07-04T05:16:43;6.80;;;6.80;;
50417;SDS011;36346;48.280;14.292;2022-07-04T05:19:11;7.44;;;7.44;;
50417;SDS011;36346;48.280;14.292;2022-07-04T05:21:40;6.72;;;6.72;;
50417;SDS011;36346;48.280;14.292;2022-07-04T05:24:08;7.01;;;7.01;;
50417;SDS011;36346;48.280;14.292;2022-07-04T05:26:38;6.96;;;6.96;;
50417;SDS011;36346;48.280;14.292;2022-07-04T05:29:07;6.71;;;6.71;;
50417;SDS011;36346;48.280;14.292;2022-07-04T05:31:35;6.56;;;6.56;;
50417;SDS011;36346;48.280;14.292;2022-07-04T05:34:03;6.90;;;6.90;;
50417;SDS011;36346;48.280;14.292;2022-07-04T05:36:32;7.14;;;7.14;;
50417;SDS011;36346;48.280;14.292;2022-07-04T05:39:00;7.28;;;7.28;;
50417;SDS011;36346;48.280;14.292;2022-07-04T05:41:29;6.91;;;6.91;;
50417;SDS011;36346;48.280;14.292;2022-07-04T05:43:57;7.00;;;7.00;;
50417;SDS011;36346;48.280;14.292;2022-07-04T05:46:25;7.74;;;7.74;;
50417;SDS011;36346;48.280;14.292;2022-07-04T05:48:54;7.79;;;7.79;;
50417;SDS011;36346;48.280;14.292;2022-07-04T05:51:23;6.59;;;6.59;;
50417;SDS011;36346;48.280;14.292;2022-07-04T05:53:51;6.77;;;6.77;;
50417;SDS011;36346;48.280;14.292;2022-07-04T05:56:20;6.90;;;6.90;;
50417;SDS011;36346;48.280;14.292;2022-07-04T05:58:49;6.80;;;6.80;;
50417;SDS011;36346;48.280;14.292;2022-07-04T06:01:17;5.53;;;5.53;;
50417;SDS011;36346;48.280;14.292;2022-07-04T06:03:46;5.55;;;5.55;;
50417;SDS011;36346;48.280;14.292;2022-07-04T06:06:14;6.15;;;6.15;;
50417;SDS011;36346;48.280;14.292;2022-07-04T06:08:44;5.48;;;5.48;;
50417;SDS011;36346;48.280;14.292;2022-07-04T06:11:12;4.90;;;4.90;;
50417;SDS011;36346;48.280;14.292;2022-07-04T06:13:42;4.76;;;4.76;;
50417;SDS011;36346;48.280;14.292;2022-07-04T06:16:10;4.19;;;4.19;;
50417;SDS011;36346;48.280;14.292;2022-07-04T06:18:39;4.32;;;4.32;;
50417;SDS011;36346;48.280;14.292;2022-07-04T06:21:07;4.06;;;4.06;;
50417;SDS011;36346;48.280;14.292;2022-07-04T06:23:36;4.65;;;4.65;;
50417;SDS011;36346;48.280;14.292;2022-07-04T06:26:04;4.62;;;4.62;;
50417;SDS011;36346;48.280;14.292;2022-07-04T06:28:33;3.98;;;3.98;;
50417;SDS011;36346;48.280;14.292;2022-07-04T06:31:16;3.29;;;3.29;;
50417;SDS011;36346;48.280;14.292;2022-07-04T06:33:45;3.42;;;3.42;;
50417;SDS011;36346;48.280;14.292;2022-07-04T06:36:32;3.37;;;3.37;;
50417;SDS011;36346;48.280;14.292;2022-07-04T06:39:01;3.19;;;3.19;;
50417;SDS011;36346;48.280;14.292;2022-07-04T06:41:29;3.56;;;3.56;;
50417;SDS011;36346;48.280;14.292;2022-07-04T06:43:57;3.75;;;3.75;;
50417;SDS011;36346;48.280;14.292;2022-07-04T06:46:26;4.22;;;4.22;;
50417;SDS011;36346;48.280;14.292;2022-07-04T06:48:54;4.16;;;4.16;;
50417;SDS011;36346;48.280;14.292;2022-07-04T06:51:23;4.15;;;4.15;;
50417;SDS011;36346;48.280;14.292;2022-07-04T06:53:51;3.89;;;3.89;;
50417;SDS011;36346;48.280;14.292;2022-07-04T06:56:19;3.75;;;3.75;;
50417;SDS011;36346;48.280;14.292;2022-07-04T06:58:47;3.77;;;3.77;;
50417;SDS011;36346;48.280;14.292;2022-07-04T07:01:16;4.04;;;4.04;;
50417;SDS011;36346;48.280;14.292;2022-07-04T07:03:44;4.37;;;4.37;;
50417;SDS011;36346;48.280;14.292;2022-07-04T07:06:12;4.71;;;4.71;;
50417;SDS011;36346;48.280;14.292;2022-07-04T07:08:40;4.68;;;4.68;;
50417;SDS011;36346;48.280;14.292;2022-07-04T07:11:09;4.38;;;4.38;;
50417;SDS011;36346;48.280;14.292;2022-07-04T07:13:43;4.74;;;4.74;;
50417;SDS011;36346;48.280;14.292;2022-07-04T07:16:14;4.77;;;4.77;;
50417;SDS011;36346;48.280;14.292;2022-07-04T07:18:43;5.09;;;5.09;;
50417;SDS011;36346;48.280;14.292;2022-07-04T07:21:11;4.81;;;4.81;;
50417;SDS011;36346;48.280;14.292;2022-07-04T07:23:40;4.55;;;4.55;;
50417;SDS011;36346;48.280;14.292;2022-07-04T07:26:08;4.58;;;4.58;;
50417;SDS011;36346;48.280;14.292;2022-07-04T07:28:39;4.49;;;4.49;;
50417;SDS011;36346;48.280;14.292;2022-07-04T07:31:07;4.45;;;4.45;;
50417;SDS011;36346;48.280;14.292;2022-07-04T07:33:36;5.43;;;5.43;;
50417;SDS011;36346;48.280;14.292;2022-07-04T07:36:04;6.23;;;6.23;;
50417;SDS011;36346;48.280;14.292;2022-07-04T07:38:33;7.46;;;7.46;;
50417;SDS011;36346;48.280;14.292;2022-07-04T07:41:01;8.35;;;8.35;;
50417;SDS011;36346;48.280;14.292;2022-07-04T07:43:29;7.93;;;7.92;;
50417;SDS011;36346;48.280;14.292;2022-07-04T07:45:57;7.12;;;7.12;;
50417;SDS011;36346;48.280;14.292;2022-07-04T07:48:26;8.32;;;8.32;;
50417;SDS011;36346;48.280;14.292;2022-07-04T07:50:55;9.01;;;9.01;;
50417;SDS011;36346;48.280;14.292;2022-07-04T07:53:23;8.28;;;8.28;;
50417;SDS011;36346;48.280;14.292;2022-07-04T07:55:51;6.75;;;6.75;;
50417;SDS011;36346;48.280;14.292;2022-07-04T07:58:19;4.22;;;4.22;;
50417;SDS011;36346;48.280;14.292;2022-07-04T08:00:47;3.53;;;3.53;;
50417;SDS011;36346;48.280;14.292;2022-07-04T08:03:23;3.25;;;3.25;;
50417;SDS011;36346;48.280;14.292;2022-07-04T08:06:11;3.01;;;3.01;;
50417;SDS011;36346;48.280;14.292;2022-07-04T08:08:40;3.22;;;3.22;;
50417;SDS011;36346;48.280;14.292;2022-07-04T08:11:09;2.98;;;2.98;;
50417;SDS011;36346;48.280;14.292;2022-07-04T08:13:39;3.27;;;3.27;;
50417;SDS011;36346;48.280;14.292;2022-07-04T08:16:08;2.90;;;2.90;;
50417;SDS011;36346;48.280;14.292;2022-07-04T08:18:36;2.98;;;2.98;;
50417;SDS011;36346;48.280;14.292;2022-07-04T08:21:05;2.81;;;2.81;;
50417;SDS011;36346;48.280;14.292;2022-07-04T08:23:39;3.05;;;3.05;;
50417;SDS011;36346;48.280;14.292;2022-07-04T08:26:28;2.63;;;2.63;;
50417;SDS011;36346;48.280;14.292;2022-07-04T08:28:57;2.80;;;2.80;;
50417;SDS011;36346;48.280;14.292;2022-07-04T08:31:29;3.38;;;3.38;;
50417;SDS011;36346;48.280;14.292;2022-07-04T08:34:17;3.29;;;3.29;;
50417;SDS011;36346;48.280;14.292;2022-07-04T08:36:45;3.09;;;3.09;;
50417;SDS011;36346;48.280;14.292;2022-07-04T08:39:13;3.27;;;3.27;;
50417;SDS011;36346;48.280;14.292;2022-07-04T08:41:42;3.95;;;3.95;;
50417;SDS011;36346;48.280;14.292;2022-07-04T08:44:10;3.49;;;3.49;;
50417;SDS011;36346;48.280;14.292;2022-07-04T08:46:39;3.96;;;3.96;;
50417;SDS011;36346;48.280;14.292;2022-07-04T08:49:17;2.73;;;2.73;;
50417;SDS011;36346;48.280;14.292;2022-07-04T08:51:54;2.96;;;2.96;;
50417;SDS011;36346;48.280;14.292;2022-07-04T08:54:29;3.46;;;3.46;;
50417;SDS011;36346;48.280;14.292;2022-07-04T08:57:18;5.62;;;5.62;;
50417;SDS011;36346;48.280;14.292;2022-07-04T09:00:06;2.98;;;2.98;;
50417;SDS011;36346;48.280;14.292;2022-07-04T09:02:35;2.68;;;2.68;;
50417;SDS011;36346;48.280;14.292;2022-07-04T09:05:06;2.88;;;2.88;;
50417;SDS011;36346;48.280;14.292;2022-07-04T09:07:36;2.68;;;2.68;;
50417;SDS011;36346;48.280;14.292;2022-07-04T09:10:04;2.88;;;2.88;;
50417;SDS011;36346;48.280;14.292;2022-07-04T09:12:34;2.78;;;2.78;;
50417;SDS011;36346;48.280;14.292;2022-07-04T09:15:22;2.91;;;2.91;;
50417;SDS011;36346;48.280;14.292;2022-07-04T09:17:50;2.72;;;2.72;;
50417;SDS011;36346;48.280;14.292;2022-07-04T09:20:19;2.71;;;2.71;;
50417;SDS011;36346;48.280;14.292;2022-07-04T09:22:50;2.54;;;2.54;;
50417;SDS011;36346;48.280;14.292;2022-07-04T09:25:20;2.69;;;2.69;;
50417;SDS011;36346;48.280;14.292;2022-07-04T09:27:56;3.40;;;3.40;;
50417;SDS011;36346;48.280;14.292;2022-07-04T09:30:25;2.97;;;2.97;;
50417;SDS011;36346;48.280;14.292;2022-07-04T09:32:56;3.04;;;3.04;;
50417;SDS011;36346;48.280;14.292;2022-07-04T09:35:29;2.87;;;2.87;;
50417;SDS011;36346;48.280;14.292;2022-07-04T09:38:05;2.72;;;2.72;;
50417;SDS011;36346;48.280;14.292;2022-07-04T09:43:22;2.97;;;2.97;;
50417;SDS011;36346;48.280;14.292;2022-07-04T09:45:59;2.88;;;2.88;;
50417;SDS011;36346;48.280;14.292;2022-07-04T09:48:48;3.03;;;3.03;;
50417;SDS011;36346;48.280;14.292;2022-07-04T09:51:35;2.99;;;2.99;;
50417;SDS011;36346;48.280;14.292;2022-07-04T09:54:21;2.94;;;2.94;;
50417;SDS011;36346;48.280;14.292;2022-07-04T09:56:54;2.74;;;2.74;;
50417;SDS011;36346;48.280;14.292;2022-07-04T09:59:24;2.69;;;2.69;;
50417;SDS011;36346;48.280;14.292;2022-07-04T10:02:05;2.88;;;2.88;;
50417;SDS011;36346;48.280;14.292;2022-07-04T10:04:41;3.56;;;3.56;;
50417;SDS011;36346;48.280;14.292;2022-07-04T10:07:11;2.77;;;2.77;;
50417;SDS011;36346;48.280;14.292;2022-07-04T10:09:39;2.66;;;2.66;;
50417;SDS011;36346;48.280;14.292;2022-07-04T10:12:08;2.62;;;2.62;;
50417;SDS011;36346;48.280;14.292;2022-07-04T10:14:36;2.98;;;2.98;;
50417;SDS011;36346;48.280;14.292;2022-07-04T10:17:05;2.66;;;2.66;;
50417;SDS011;36346;48.280;14.292;2022-07-04T10:19:33;2.98;;;2.98;;
50417;SDS011;36346;48.280;14.292;2022-07-04T10:22:03;3.76;;;3.76;;
50417;SDS011;36346;48.280;14.292;2022-07-04T10:24:35;3.47;;;3.47;;
50417;SDS011;36346;48.280;14.292;2022-07-04T10:27:03;2.67;;;2.67;;
50417;SDS011;36346;48.280;14.292;2022-07-04T10:29:31;2.90;;;2.90;;
50417;SDS011;36346;48.280;14.292;2022-07-04T10:32:00;3.30;;;3.30;;
50417;SDS011;36346;48.280;14.292;2022-07-04T10:34:29;3.27;;;3.27;;
50417;SDS011;36346;48.280;14.292;2022-07-04T10:36:57;2.72;;;2.72;;
50417;SDS011;36346;48.280;14.292;2022-07-04T10:39:25;2.30;;;2.30;;
50417;SDS011;36346;48.280;14.292;2022-07-04T10:41:56;2.55;;;2.55;;
50417;SDS011;36346;48.280;14.292;2022-07-04T10:44:30;2.48;;;2.48;;
50417;SDS011;36346;48.280;14.292;2022-07-04T10:47:04;2.40;;;2.40;;
50417;SDS011;36346;48.280;14.292;2022-07-04T10:49:34;2.12;;;2.12;;
50417;SDS011;36346;48.280;14.292;2022-07-04T10:52:12;2.33;;;2.33;;
50417;SDS011;36346;48.280;14.292;2022-07-04T10:54:41;2.30;;;2.30;;
50417;SDS011;36346;48.280;14.292;2022-07-04T11:02:26;2.42;;;2.42;;
50417;SDS011;36346;48.280;14.292;2022-07-04T11:17:56;2.34;;;2.34;;
50417;SDS011;36346;48.280;14.292;2022-07-04T11:20:30;1.98;;;1.98;;
50417;SDS011;36346;48.280;14.292;2022-07-04T11:23:05;2.20;;;2.20;;
50417;SDS011;36346;48.280;14.292;2022-07-04T11:25:35;1.87;;;1.87;;
50417;SDS011;36346;48.280;14.292;2022-07-04T11:31:07;2.10;;;2.10;;
50417;SDS011;36346;48.280;14.292;2022-07-04T11:33:35;2.18;;;2.18;;
50417;SDS011;36346;48.280;14.292;2022-07-04T11:36:08;2.24;;;2.24;;
50417;SDS011;36346;48.280;14.292;2022-07-04T11:38:49;2.11;;;2.11;;
50417;SDS011;36346;48.280;14.292;2022-07-04T11:41:27;1.99;;;1.99;;
50417;SDS011;36346;48.280;14.292;2022-07-04T11:44:16;2.24;;;2.24;;
50417;SDS011;36346;48.280;14.292;2022-07-04T11:47:11;2.24;;;2.24;;
50417;SDS011;36346;48.280;14.292;2022-07-04T11:52:22;2.25;;;2.25;;
50417;SDS011;36346;48.280;14.292;2022-07-04T11:55:15;2.39;;;2.39;;
50417;SDS011;36346;48.280;14.292;2022-07-04T11:57:45;2.36;;;2.36;;
50417;SDS011;36346;48.280;14.292;2022-07-04T12:00:20;2.38;;;2.38;;
50417;SDS011;36346;48.280;14.292;2022-07-04T12:02:52;2.75;;;2.75;;
50417;SDS011;36346;48.280;14.292;2022-07-04T12:05:27;2.71;;;2.71;;
50417;SDS011;36346;48.280;14.292;2022-07-04T12:07:56;2.79;;;2.79;;
50417;SDS011;36346;48.280;14.292;2022-07-04T12:10:44;2.72;;;2.72;;
50417;SDS011;36346;48.280;14.292;2022-07-04T12:13:14;2.72;;;2.72;;
50417;SDS011;36346;48.280;14.292;2022-07-04T12:15:45;2.91;;;2.91;;
50417;SDS011;36346;48.280;14.292;2022-07-04T12:18:22;2.77;;;2.77;;
50417;SDS011;36346;48.280;14.292;2022-07-04T12:20:52;2.91;;;2.91;;
50417;SDS011;36346;48.280;14.292;2022-07-04T12:23:22;2.90;;;2.90;;
50417;SDS011;36346;48.280;14.292;2022-07-04T12:25:53;2.82;;;2.82;;
50417;SDS011;36346;48.280;14.292;2022-07-04T12:28:23;2.63;;;2.63;;
50417;SDS011;36346;48.280;14.292;2022-07-04T12:30:56;2.54;;;2.54;;
50417;SDS011;36346;48.280;14.292;2022-07-04T12:33:28;2.85;;;2.85;;
50417;SDS011;36346;48.280;14.292;2022-07-04T12:35:58;2.98;;;2.98;;
50417;SDS011;36346;48.280;14.292;2022-07-04T12:48:42;3.12;;;3.12;;
50417;SDS011;36346;48.280;14.292;2022-07-04T12:51:14;3.07;;;3.07;;
50417;SDS011;36346;48.280;14.292;2022-07-04T12:53:43;3.27;;;3.27;;
50417;SDS011;36346;48.280;14.292;2022-07-04T12:59:03;3.07;;;3.07;;
50417;SDS011;36346;48.280;14.292;2022-07-04T13:01:42;3.05;;;3.05;;
50417;SDS011;36346;48.280;14.292;2022-07-04T13:04:12;3.45;;;3.45;;
50417;SDS011;36346;48.280;14.292;2022-07-04T13:06:41;3.32;;;3.32;;
50417;SDS011;36346;48.280;14.292;2022-07-04T13:09:09;3.31;;;3.31;;
50417;SDS011;36346;48.280;14.292;2022-07-04T13:11:37;3.41;;;3.41;;
50417;SDS011;36346;48.280;14.292;2022-07-04T13:14:24;3.33;;;3.33;;
50417;SDS011;36346;48.280;14.292;2022-07-04T13:16:52;7.51;;;7.51;;
50417;SDS011;36346;48.280;14.292;2022-07-04T13:19:20;4.90;;;4.90;;
50417;SDS011;36346;48.280;14.292;2022-07-04T13:21:48;3.55;;;3.55;;
50417;SDS011;36346;48.280;14.292;2022-07-04T13:24:17;3.62;;;3.62;;
50417;SDS011;36346;48.280;14.292;2022-07-04T13:26:45;3.35;;;3.35;;
50417;SDS011;36346;48.280;14.292;2022-07-04T13:29:13;4.85;;;4.85;;
50417;SDS011;36346;48.280;14.292;2022-07-04T13:31:41;4.17;;;4.17;;
50417;SDS011;36346;48.280;14.292;2022-07-04T13:34:09;3.73;;;3.73;;
50417;SDS011;36346;48.280;14.292;2022-07-04T13:36:37;3.84;;;3.84;;
50417;SDS011;36346;48.280;14.292;2022-07-04T13:39:05;3.64;;;3.64;;
50417;SDS011;36346;48.280;14.292;2022-07-04T13:41:36;4.18;;;4.18;;
50417;SDS011;36346;48.280;14.292;2022-07-04T13:44:05;3.92;;;3.92;;
50417;SDS011;36346;48.280;14.292;2022-07-04T13:46:34;4.20;;;4.20;;
50417;SDS011;36346;48.280;14.292;2022-07-04T13:49:03;3.60;;;3.60;;
50417;SDS011;36346;48.280;14.292;2022-07-04T13:51:39;3.25;;;3.25;;
50417;SDS011;36346;48.280;14.292;2022-07-04T13:54:09;3.80;;;3.80;;
50417;SDS011;36346;48.280;14.292;2022-07-04T13:56:38;3.72;;;3.72;;
50417;SDS011;36346;48.280;14.292;2022-07-04T13:59:07;4.03;;;4.03;;
50417;SDS011;36346;48.280;14.292;2022-07-04T14:01:37;3.48;;;3.48;;
50417;SDS011;36346;48.280;14.292;2022-07-04T14:04:05;3.65;;;3.65;;
50417;SDS011;36346;48.280;14.292;2022-07-04T14:06:33;3.76;;;3.76;;
50417;SDS011;36346;48.280;14.292;2022-07-04T14:09:02;4.01;;;4.01;;
50417;SDS011;36346;48.280;14.292;2022-07-04T14:11:30;3.90;;;3.90;;
50417;SDS011;36346;48.280;14.292;2022-07-04T14:13:58;4.29;;;4.29;;
50417;SDS011;36346;48.280;14.292;2022-07-04T14:16:26;3.92;;;3.92;;
50417;SDS011;36346;48.280;14.292;2022-07-04T14:18:54;3.76;;;3.76;;
50417;SDS011;36346;48.280;14.292;2022-07-04T14:21:22;3.85;;;3.85;;
50417;SDS011;36346;48.280;14.292;2022-07-04T14:23:51;4.03;;;4.03;;
50417;SDS011;36346;48.280;14.292;2022-07-04T14:26:20;3.91;;;3.91;;
50417;SDS011;36346;48.280;14.292;2022-07-04T14:28:52;4.03;;;4.03;;
50417;SDS011;36346;48.280;14.292;2022-07-04T14:31:21;4.41;;;4.41;;
50417;SDS011;36346;48.280;14.292;2022-07-04T14:33:50;4.07;;;4.07;;
50417;SDS011;36346;48.280;14.292;2022-07-04T14:36:19;4.46;;;4.46;;
50417;SDS011;36346;48.280;14.292;2022-07-04T14:38:47;4.63;;;4.63;;
50417;SDS011;36346;48.280;14.292;2022-07-04T14:41:15;5.02;;;5.02;;
50417;SDS011;36346;48.280;14.292;2022-07-04T14:43:43;4.24;;;4.24;;
50417;SDS011;36346;48.280;14.292;2022-07-04T14:46:11;4.47;;;4.47;;
50417;SDS011;36346;48.280;14.292;2022-07-04T14:48:40;4.13;;;4.13;;
50417;SDS011;36346;48.280;14.292;2022-07-04T14:51:08;4.56;;;4.56;;
50417;SDS011;36346;48.280;14.292;2022-07-04T14:53:36;4.62;;;4.62;;
50417;SDS011;36346;48.280;14.292;2022-07-04T14:56:04;4.67;;;4.67;;
50417;SDS011;36346;48.280;14.292;2022-07-04T14:58:33;4.52;;;4.52;;
50417;SDS011;36346;48.280;14.292;2022-07-04T15:01:01;4.45;;;4.45;;
50417;SDS011;36346;48.280;14.292;2022-07-04T15:03:29;4.64;;;4.64;;
50417;SDS011;36346;48.280;14.292;2022-07-04T15:05:57;4.81;;;4.81;;
50417;SDS011;36346;48.280;14.292;2022-07-04T15:08:26;4.54;;;4.54;;
50417;SDS011;36346;48.280;14.292;2022-07-04T15:10:54;4.48;;;4.48;;
50417;SDS011;36346;48.280;14.292;2022-07-04T15:13:27;4.37;;;4.37;;
50417;SDS011;36346;48.280;14.292;2022-07-04T15:15:58;4.63;;;4.63;;
50417;SDS011;36346;48.280;14.292;2022-07-04T15:18:46;4.50;;;4.50;;
50417;SDS011;36346;48.280;14.292;2022-07-04T15:21:14;4.70;;;4.70;;
50417;SDS011;36346;48.280;14.292;2022-07-04T15:24:01;4.20;;;4.20;;
50417;SDS011;36346;48.280;14.292;2022-07-04T15:26:40;4.32;;;4.32;;
50417;SDS011;36346;48.280;14.292;2022-07-04T15:29:10;4.44;;;4.44;;
50417;SDS011;36346;48.280;14.292;2022-07-04T15:31:41;4.61;;;4.61;;